Time;durP1;ratioP1;P1;durP2;ratioP2;P2;SDS_P1;SDS_P2;PMS_P1;PMS_P2;Temp;Humidity;BMP_temperature;BMP_pressure;BME280_temperature;BME280_humidity;BME280_pressure;Samples;Min_cycle;Max_cycle;Signal;HPM_P1;HPM_P2
2022/11/30 00:01:07;;;;;;;;;;;;;;;;;;5028515;28;1168;-66
2022/11/30 00:03:33;;;;;;;;;;;;;;;;;;5030162;28;802;-66
2022/11/30 00:06:02;;;;;;;;;;;;;;;;;;5029783;28;1965;-66
2022/11/30 00:08:28;;;;;;;;;;;;;;;;;;5031740;28;829;-66
2022/11/30 00:10:53;;;;;;;;;;;;;;;;;;5033232;28;1197;-66
2022/11/30 00:13:18;;;;;;;;;;;;;;;;;;5033240;28;975;-66
2022/11/30 00:15:43;;;;;;;;;;;;;;;;;;5032116;28;905;-66
2022/11/30 00:18:09;;;;;;;;;;;;;;;;;;5033001;28;987;-66
2022/11/30 00:20:34;;;;;;;;;;;;;;;;;;5033173;28;1008;-66
2022/11/30 00:22:59;;;;;;;;;;;;;;;;;;5031090;28;1152;-66
2022/11/30 00:25:24;;;;;;;;;;;;;;;;;;5033399;28;1961;-66
2022/11/30 00:27:50;;;;;;;;;;;;;;;;;;5033234;28;849;-66
2022/11/30 00:30:15;;;;;;;;;;;;;;;;;;5033090;28;794;-66
2022/11/30 00:32:40;;;;;;;;;;;;;;;;;;5032273;28;916;-66
2022/11/30 00:35:06;;;;;;;;;;;;;;;;;;5033394;28;892;-66
2022/11/30 00:37:33;;;;;;;;;;;;;;;;;;5049347;28;1270;-66
2022/11/30 00:39:58;;;;;;;;;;;;;;;;;;5033274;28;956;-66
2022/11/30 00:42:23;;;;;;;;;;;;;;;;;;5032663;28;1390;-66
2022/11/30 00:44:48;;;;;;;;;;;;;;;;;;5032998;28;1898;-66
2022/11/30 00:47:14;;;;;;;;;;;;;;;;;;5031946;28;936;-66
2022/11/30 00:49:39;;;;;;;;;;;;;;;;;;5033047;28;900;-66
2022/11/30 00:52:04;;;;;;;;;;;;;;;;;;5031916;28;1048;-66
2022/11/30 00:54:29;;;;;;;;;;;;;;;;;;5031148;28;1220;-66
2022/11/30 00:56:55;;;;;;;;;;;;;;;;;;5031030;28;1283;-66
2022/11/30 00:59:20;;;;;;;;;;;;;;;;;;5030791;28;1232;-66
2022/11/30 01:01:45;;;;;;;;;;;;;;;;;;5031419;28;1481;-66
2022/11/30 01:04:10;;;;;;;;;;;;;;;;;;5030433;28;1211;-66
2022/11/30 01:06:36;;;;;;;;;;;;;;;;;;5032431;28;1874;-66
2022/11/30 01:09:01;;;;;;;;;;;;;;;;;;5032042;28;837;-66
2022/11/30 01:11:28;;;;;;;;;;;;;;;;;;5032488;28;1304;-66
2022/11/30 01:13:54;;;;;;;;;;;;;;;;;;5032602;28;908;-66
2022/11/30 01:16:21;;;;;;;;;;;;;;;;;;5031980;28;821;-66
2022/11/30 01:18:47;;;;;;;;;;;;;;;;;;5032245;28;881;-66
2022/11/30 01:21:13;;;;;;;;;;;;;;;;;;5030133;28;1201;-66
2022/11/30 01:23:39;;;;;;;;;;;;;;;;;;5031112;28;1216;-66
2022/11/30 01:26:04;;;;;;;;;;;;;;;;;;5031597;28;1965;-66
2022/11/30 01:28:30;;;;;;;;;;;;;;;;;;5032430;28;825;-66
2022/11/30 01:30:56;;;;;;;;;;;;;;;;;;5030440;28;822;-66
2022/11/30 01:33:21;;;;;;;;;;;;;;;;;;5030386;28;821;-66
2022/11/30 01:35:46;;;;;;;;;;;;;;;;;;5030490;28;1500;-66
2022/11/30 01:38:12;;;;;;;;;;;;;;;;;;5029989;28;1050;-66
2022/11/30 01:40:37;;;;;;;;;;;;;;;;;;5030489;28;1272;-66
2022/11/30 01:43:08;;;;;;;;;;;;;;;;;;5030791;28;884;-66
2022/11/30 01:45:33;;;;;;;;;;;;;;;;;;5031088;28;1918;-66
2022/11/30 01:47:59;;;;;;;;;;;;;;;;;;5030677;28;868;-66
2022/11/30 01:50:33;;;;;;;;;;;;;;;;;;5030039;28;1294;-66
2022/11/30 01:52:58;;;;;;;;;;;;;;;;;;5031298;28;1038;-66
2022/11/30 01:55:24;;;;;;;;;;;;;;;;;;5031551;28;1003;-66
2022/11/30 01:57:51;;;;;;;;;;;;;;;;;;5031603;28;833;-66
2022/11/30 02:00:17;;;;;;;;;;;;;;;;;;5029857;28;1378;-66
2022/11/30 02:02:43;;;;;;;;;;;;;;;;;;5031799;28;798;-66
2022/11/30 02:05:09;;;;;;;;;;;;;;;;;;5029276;28;1955;-66
2022/11/30 02:07:35;;;;;;;;;;;;;;;;;;5031287;28;806;-66
2022/11/30 02:10:00;;;;;;;;;;;;;;;;;;5029758;28;914;-66
2022/11/30 02:12:28;;;;;;;;;;;;;;;;;;5030507;28;1370;-66
2022/11/30 02:14:56;;;;;;;;;;;;;;;;;;5031333;28;881;-66
2022/11/30 02:17:33;;;;;;;;;;;;;;;;;;5029817;28;1214;-66
2022/11/30 02:20:11;;;;;;;;;;;;;;;;;;5031654;28;920;-66
2022/11/30 02:23:01;;;;;;;;;;;;;;;;;;5030567;28;1216;-66
2022/11/30 02:25:51;;;;;;;;;;;;;;;;;;5030441;28;1910;-66
2022/11/30 02:28:35;;;;;;;;;;;;;;;;;;5030853;28;1063;-65
2022/11/30 02:31:02;;;;;;;;;;;;;;;;;;5030446;28;924;-66
2022/11/30 02:33:29;;;;;;;;;;;;;;;;;;5031499;28;901;-66
2022/11/30 02:35:54;;;;;;;;;;;;;;;;;;5045660;28;1458;-66
2022/11/30 02:38:20;;;;;;;;;;;;;;;;;;5029965;28;849;-66
2022/11/30 02:40:46;;;;;;;;;;;;;;;;;;5030485;28;999;-66
2022/11/30 02:43:11;;;;;;;;;;;;;;;;;;5030174;28;791;-66
2022/11/30 02:45:55;;;;;;;;;;;;;;;;;;5030318;28;1898;-66
2022/11/30 02:48:27;;;;;;;;;;;;;;;;;;5029556;28;841;-66
2022/11/30 02:50:55;;;;;;;;;;;;;;;;;;5029078;28;1313;-66
2022/11/30 02:53:21;;;;;;;;;;;;;;;;;;5029589;28;905;-66
2022/11/30 02:55:46;;;;;;;;;;;;;;;;;;5028732;28;1196;-66
2022/11/30 02:58:12;;;;;;;;;;;;;;;;;;5029711;28;845;-66
2022/11/30 03:00:39;;;;;;;;;;;;;;;;;;5030787;28;1054;-66
2022/11/30 03:03:04;;;;;;;;;;;;;;;;;;5028190;28;1164;-66
2022/11/30 03:05:30;;;;;;;;;;;;;;;;;;5028835;28;1910;-66
2022/11/30 03:07:55;;;;;;;;;;;;;;;;;;5028773;28;1399;-66
2022/11/30 03:10:20;;;;;;;;;;;;;;;;;;5028099;28;1318;-66
2022/11/30 03:12:45;;;;;;;;;;;;;;;;;;5029218;28;1359;-66
2022/11/30 03:15:11;;;;;;;;;;;;;;;;;;5029873;28;956;-66
2022/11/30 03:17:36;;;;;;;;;;;;;;;;;;5030583;28;824;-66
2022/11/30 03:20:01;;;;;;;;;;;;;;;;;;5029143;28;1454;-66
2022/11/30 03:22:27;;;;;;;;;;;;;;;;;;5029592;28;837;-66
2022/11/30 03:24:52;;;;;;;;;;;;;;;;;;5030291;28;2000;-66
2022/11/30 03:27:17;;;;;;;;;;;;;;;;;;5029663;28;893;-66
2022/11/30 03:29:42;;;;;;;;;;;;;;;;;;5030634;28;849;-66
2022/11/30 03:32:08;;;;;;;;;;;;;;;;;;5028274;28;1323;-65
2022/11/30 03:34:33;;;;;;;;;;;;;;;;;;5028885;28;896;-66
2022/11/30 03:36:58;;;;;;;;;;;;;;;;;;5030164;28;980;-66
2022/11/30 03:39:23;;;;;;;;;;;;;;;;;;5029595;28;889;-66
2022/11/30 03:41:49;;;;;;;;;;;;;;;;;;5030309;28;869;-66
2022/11/30 03:44:14;;;;;;;;;;;;;;;;;;5032460;28;850;-66
2022/11/30 03:46:40;;;;;;;;;;;;;;;;;;5032695;28;1894;-66
2022/11/30 03:49:05;;;;;;;;;;;;;;;;;;5033365;28;1007;-65
2022/11/30 03:51:30;;;;;;;;;;;;;;;;;;5033642;28;825;-66
2022/11/30 03:53:56;;;;;;;;;;;;;;;;;;5034124;28;857;-66
2022/11/30 03:56:21;;;;;;;;;;;;;;;;;;5031781;28;992;-66
2022/11/30 03:58:46;;;;;;;;;;;;;;;;;;5032636;28;865;-66
2022/11/30 04:01:13;;;;;;;;;;;;;;;;;;5032527;28;1236;-66
2022/11/30 04:03:38;;;;;;;;;;;;;;;;;;5034896;28;876;-66
2022/11/30 04:06:04;;;;;;;;;;;;;;;;;;5034235;28;1952;-66
2022/11/30 04:08:29;;;;;;;;;;;;;;;;;;5049651;28;1255;-66
2022/11/30 04:10:55;;;;;;;;;;;;;;;;;;5034062;28;1093;-66
2022/11/30 04:13:21;;;;;;;;;;;;;;;;;;5031460;28;825;-66
2022/11/30 04:15:47;;;;;;;;;;;;;;;;;;5049174;28;1177;-66
2022/11/30 04:18:13;;;;;;;;;;;;;;;;;;5048878;28;1235;-66
2022/11/30 04:20:39;;;;;;;;;;;;;;;;;;5033942;28;841;-66
2022/11/30 04:23:04;;;;;;;;;;;;;;;;;;5033405;28;846;-68
2022/11/30 04:25:29;;;;;;;;;;;;;;;;;;5031328;28;1918;-66
2022/11/30 04:27:54;;;;;;;;;;;;;;;;;;5033095;28;971;-66
2022/11/30 04:30:20;;;;;;;;;;;;;;;;;;5031269;28;967;-66
2022/11/30 04:32:45;;;;;;;;;;;;;;;;;;5033266;28;834;-66
2022/11/30 04:35:10;;;;;;;;;;;;;;;;;;5032724;28;951;-66
2022/11/30 04:37:36;;;;;;;;;;;;;;;;;;5031721;28;1220;-66
2022/11/30 04:40:01;;;;;;;;;;;;;;;;;;5031850;28;1165;-66
2022/11/30 04:42:26;;;;;;;;;;;;;;;;;;5031065;28;1332;-69
2022/11/30 04:44:51;;;;;;;;;;;;;;;;;;5031629;28;1894;-67
2022/11/30 04:47:17;;;;;;;;;;;;;;;;;;5032113;28;1027;-69
2022/11/30 04:49:42;;;;;;;;;;;;;;;;;;5031849;28;833;-66
2022/11/30 04:52:07;;;;;;;;;;;;;;;;;;5031781;28;892;-66
2022/11/30 04:54:33;;;;;;;;;;;;;;;;;;5031912;28;833;-66
2022/11/30 04:56:58;;;;;;;;;;;;;;;;;;5033038;28;1058;-66
2022/11/30 04:59:23;;;;;;;;;;;;;;;;;;5032604;28;746;-66
2022/11/30 05:01:48;;;;;;;;;;;;;;;;;;5032063;28;905;-66
2022/11/30 05:04:14;;;;;;;;;;;;;;;;;;5032388;28;904;-66
2022/11/30 05:06:39;;;;;;;;;;;;;;;;;;5033607;28;1926;-66
2022/11/30 05:09:04;;;;;;;;;;;;;;;;;;5031671;28;1259;-68
2022/11/30 05:11:29;;;;;;;;;;;;;;;;;;5030442;28;1062;-66
2022/11/30 05:13:55;;;;;;;;;;;;;;;;;;5032664;28;880;-66
2022/11/30 05:16:20;;;;;;;;;;;;;;;;;;5030667;28;1264;-66
2022/11/30 05:18:45;;;;;;;;;;;;;;;;;;5032556;28;952;-66
2022/11/30 05:21:10;;;;;;;;;;;;;;;;;;5032656;28;837;-66
2022/11/30 05:23:36;;;;;;;;;;;;;;;;;;5031122;28;1094;-66
2022/11/30 05:26:01;;;;;;;;;;;;;;;;;;5031593;28;1918;-66
2022/11/30 05:28:27;;;;;;;;;;;;;;;;;;5031520;28;959;-66
2022/11/30 05:30:52;;;;;;;;;;;;;;;;;;5032408;28;996;-66
2022/11/30 05:33:17;;;;;;;;;;;;;;;;;;5030469;28;1152;-66
2022/11/30 05:35:43;;;;;;;;;;;;;;;;;;5030904;28;921;-66
2022/11/30 05:38:08;;;;;;;;;;;;;;;;;;5032111;28;1035;-66
2022/11/30 05:40:34;;;;;;;;;;;;;;;;;;5031132;28;825;-66
2022/11/30 05:43:00;;;;;;;;;;;;;;;;;;5030781;28;856;-66
2022/11/30 05:45:26;;;;;;;;;;;;;;;;;;5030955;28;1973;-66
2022/11/30 05:47:51;;;;;;;;;;;;;;;;;;5047065;28;1176;-66
2022/11/30 05:50:17;;;;;;;;;;;;;;;;;;5031436;28;995;-66
2022/11/30 05:52:42;;;;;;;;;;;;;;;;;;5032698;28;1011;-66
2022/11/30 05:55:07;;;;;;;;;;;;;;;;;;5031117;28;1335;-66
2022/11/30 05:57:37;;;;;;;;;;;;;;;;;;5032469;28;952;-66
2022/11/30 06:00:06;;;;;;;;;;;;;;;;;;5032430;28;932;-66
2022/11/30 06:02:31;;;;;;;;;;;;;;;;;;5031871;28;1178;-66
2022/11/30 06:04:56;;;;;;;;;;;;;;;;;;5032482;28;1957;-66
2022/11/30 06:07:22;;;;;;;;;;;;;;;;;;5031239;28;892;-66
2022/11/30 06:09:47;;;;;;;;;;;;;;;;;;5048459;28;1371;-66
2022/11/30 06:12:12;;;;;;;;;;;;;;;;;;5031360;28;1050;-66
2022/11/30 06:14:38;;;;;;;;;;;;;;;;;;5030129;28;830;-66
2022/11/30 06:17:03;;;;;;;;;;;;;;;;;;5031003;28;849;-66
2022/11/30 06:19:29;;;;;;;;;;;;;;;;;;5028914;28;1382;-66
2022/11/30 06:21:54;;;;;;;;;;;;;;;;;;5031456;28;904;-66
2022/11/30 06:24:19;;;;;;;;;;;;;;;;;;5030961;28;963;-66
2022/11/30 06:26:44;;;;;;;;;;;;;;;;;;5031181;28;1902;-66
2022/11/30 06:29:10;;;;;;;;;;;;;;;;;;5031239;28;842;-66
2022/11/30 06:31:35;;;;;;;;;;;;;;;;;;5030227;28;900;-66
2022/11/30 06:34:00;;;;;;;;;;;;;;;;;;5029607;28;1304;-66
2022/11/30 06:36:26;;;;;;;;;;;;;;;;;;5030294;28;972;-65
2022/11/30 06:38:51;;;;;;;;;;;;;;;;;;5030955;28;918;-65
2022/11/30 06:41:16;;;;;;;;;;;;;;;;;;5029232;28;806;-65
2022/11/30 06:43:42;;;;;;;;;;;;;;;;;;5031280;28;833;-65
2022/11/30 06:46:07;;;;;;;;;;;;;;;;;;5029474;28;1914;-65
2022/11/30 06:48:33;;;;;;;;;;;;;;;;;;5030287;28;821;-65
2022/11/30 06:50:59;;;;;;;;;;;;;;;;;;5030686;28;881;-67
2022/11/30 06:53:25;;;;;;;;;;;;;;;;;;5030463;28;888;-67
2022/11/30 06:55:50;;;;;;;;;;;;;;;;;;5031087;28;1058;-67
2022/11/30 06:58:15;;;;;;;;;;;;;;;;;;5029157;28;1267;-67
2022/11/30 07:00:41;;;;;;;;;;;;;;;;;;5030830;28;1046;-67
2022/11/30 07:03:06;;;;;;;;;;;;;;;;;;5030897;28;864;-67
2022/11/30 07:05:33;;;;;;;;;;;;;;;;;;5028515;28;1964;-66
2022/11/30 07:07:59;;;;;;;;;;;;;;;;;;5030453;28;841;-67
2022/11/30 07:10:24;;;;;;;;;;;;;;;;;;5030083;28;995;-67
2022/11/30 07:12:49;;;;;;;;;;;;;;;;;;5030666;28;1235;-66
2022/11/30 07:15:15;;;;;;;;;;;;;;;;;;5030229;28;853;-67
2022/11/30 07:17:40;;;;;;;;;;;;;;;;;;5030724;28;861;-67
2022/11/30 07:20:06;;;;;;;;;;;;;;;;;;5030696;28;920;-66
2022/11/30 07:22:31;;;;;;;;;;;;;;;;;;5030314;28;904;-66
2022/11/30 07:27:40;;;;;;;;;;;;;;;;;;5029703;28;632;-67
2022/11/30 07:30:05;;;;;;;;;;;;;;;;;;5030131;28;1062;-67
2022/11/30 07:32:31;;;;;;;;;;;;;;;;;;5030631;28;841;-67
2022/11/30 07:34:56;;;;;;;;;;;;;;;;;;5031690;28;1070;-67
2022/11/30 07:37:21;;;;;;;;;;;;;;;;;;5029568;28;912;-67
2022/11/30 07:39:47;;;;;;;;;;;;;;;;;;5029234;28;952;-66
2022/11/30 07:42:12;;;;;;;;;;;;;;;;;;5029108;28;1282;-67
2022/11/30 07:44:37;;;;;;;;;;;;;;;;;;5045190;28;1289;-67
2022/11/30 07:47:03;;;;;;;;;;;;;;;;;;5030602;28;1972;-66
2022/11/30 07:49:28;;;;;;;;;;;;;;;;;;5029177;28;856;-66
2022/11/30 07:51:53;;;;;;;;;;;;;;;;;;5027945;28;1335;-67
2022/11/30 07:54:19;;;;;;;;;;;;;;;;;;5029546;28;905;-67
2022/11/30 07:56:44;;;;;;;;;;;;;;;;;;5029586;28;909;-65
2022/11/30 07:59:09;;;;;;;;;;;;;;;;;;5029882;28;908;-64
2022/11/30 08:01:35;;;;;;;;;;;;;;;;;;5028851;28;999;-66
2022/11/30 08:04:00;;;;;;;;;;;;;;;;;;5030106;28;838;-66
2022/11/30 08:06:27;;;;;;;;;;;;;;;;;;5028017;28;1878;-65
2022/11/30 08:08:53;;;;;;;;;;;;;;;;;;5029175;28;905;-66
2022/11/30 08:11:23;;;;;;;;;;;;;;;;;;5029537;28;1023;-66
2022/11/30 08:13:48;;;;;;;;;;;;;;;;;;5044525;28;1342;-66
2022/11/30 08:16:18;;;;;;;;;;;;;;;;;;5028354;28;814;-66
2022/11/30 08:18:43;;;;;;;;;;;;;;;;;;5045045;28;1262;-66
2022/11/30 08:21:10;;;;;;;;;;;;;;;;;;5028424;28;1228;-65
2022/11/30 08:23:36;;;;;;;;;;;;;;;;;;5029483;28;829;-66
2022/11/30 08:26:06;;;;;;;;;;;;;;;;;;5029595;28;1961;-66
2022/11/30 08:28:31;;;;;;;;;;;;;;;;;;5029524;28;893;-66
2022/11/30 08:31:00;;;;;;;;;;;;;;;;;;5031752;28;1189;-65
2022/11/30 08:33:25;;;;;;;;;;;;;;;;;;5033333;28;896;-66
2022/11/30 08:35:51;;;;;;;;;;;;;;;;;;5033450;28;903;-66
2022/11/30 08:38:16;;;;;;;;;;;;;;;;;;5032717;28;829;-66
2022/11/30 08:40:42;;;;;;;;;;;;;;;;;;5033439;28;911;-64
2022/11/30 08:43:07;;;;;;;;;;;;;;;;;;5032040;28;872;-64
2022/11/30 08:45:33;;;;;;;;;;;;;;;;;;5032659;28;1960;-64
2022/11/30 08:47:58;;;;;;;;;;;;;;;;;;5032880;28;904;-65
2022/11/30 08:50:23;;;;;;;;;;;;;;;;;;5032592;28;912;-64
2022/11/30 08:52:48;;;;;;;;;;;;;;;;;;5032746;28;782;-65
2022/11/30 08:55:14;;;;;;;;;;;;;;;;;;5032842;28;877;-64
2022/11/30 08:57:39;;;;;;;;;;;;;;;;;;5031024;28;1226;-65
2022/11/30 09:00:05;;;;;;;;;;;;;;;;;;5033214;28;881;-65
2022/11/30 09:02:30;;;;;;;;;;;;;;;;;;5032782;28;1081;-65
2022/11/30 09:04:55;;;;;;;;;;;;;;;;;;5031719;28;916;-65
2022/11/30 09:07:20;;;;;;;;;;;;;;;;;;5031739;28;1902;-64
2022/11/30 09:09:46;;;;;;;;;;;;;;;;;;5030115;28;1211;-65
2022/11/30 09:12:11;;;;;;;;;;;;;;;;;;5030094;28;1244;-65
2022/11/30 09:14:36;;;;;;;;;;;;;;;;;;5031694;28;913;-65
2022/11/30 09:17:02;;;;;;;;;;;;;;;;;;5031130;28;865;-65
2022/11/30 09:19:28;;;;;;;;;;;;;;;;;;5031422;28;813;-65
2022/11/30 09:21:53;;;;;;;;;;;;;;;;;;5030810;28;846;-65
2022/11/30 09:24:19;;;;;;;;;;;;;;;;;;5030306;28;1303;-64
2022/11/30 09:26:44;;;;;;;;;;;;;;;;;;5046993;28;1914;-64
2022/11/30 09:29:10;;;;;;;;;;;;;;;;;;5032448;28;872;-64
2022/11/30 09:31:35;;;;;;;;;;;;;;;;;;5031525;28;955;-64
2022/11/30 09:34:00;;;;;;;;;;;;;;;;;;5031411;28;936;-64
2022/11/30 09:36:26;;;;;;;;;;;;;;;;;;5031241;28;924;-64
2022/11/30 09:38:52;;;;;;;;;;;;;;;;;;5031733;28;873;-64
2022/11/30 09:41:36;;;;;;;;;;;;;;;;;;5028726;28;1268;-64
2022/11/30 09:44:14;;;;;;;;;;;;;;;;;;5031783;28;880;-64
2022/11/30 09:46:43;;;;;;;;;;;;;;;;;;5029516;28;1909;-65
2022/11/30 09:49:40;;;;;;;;;;;;;;;;;;5031947;28;992;-65
2022/11/30 09:52:10;;;;;;;;;;;;;;;;;;4997996;28;1321;-65
2022/11/30 09:54:39;;;;;;;;;;;;;;;;;;5030848;28;868;-65
2022/11/30 09:57:25;;;;;;;;;;;;;;;;;;5031401;28;904;-65
2022/11/30 09:59:53;;;;;;;;;;;;;;;;;;5030875;28;868;-66
2022/11/30 10:02:21;;;;;;;;;;;;;;;;;;5030747;28;940;-64
2022/11/30 10:04:46;;;;;;;;;;;;;;;;;;5031208;28;880;-65
2022/11/30 10:07:33;;;;;;;;;;;;;;;;;;5031687;28;1882;-64
2022/11/30 10:10:24;;;;;;;;;;;;;;;;;;5031018;28;931;-65
2022/11/30 10:12:51;;;;;;;;;;;;;;;;;;5007203;28;1399;-65
2022/11/30 10:15:39;;;;;;;;;;;;;;;;;;5030722;28;907;-64
2022/11/30 10:18:13;;;;;;;;;;;;;;;;;;5002518;28;1287;-64
2022/11/30 10:20:41;;;;;;;;;;;;;;;;;;5030427;28;901;-65
2022/11/30 10:23:18;;;;;;;;;;;;;;;;;;5030517;28;782;-64
2022/11/30 10:25:53;;;;;;;;;;;;;;;;;;5029653;28;1969;-64
2022/11/30 10:28:42;;;;;;;;;;;;;;;;;;5030515;28;1015;-65
2022/11/30 10:31:12;;;;;;;;;;;;;;;;;;5032085;28;789;-64
2022/11/30 10:33:42;;;;;;;;;;;;;;;;;;5047128;28;1490;-64
2022/11/30 10:36:11;;;;;;;;;;;;;;;;;;5030379;28;1313;-64
2022/11/30 10:38:41;;;;;;;;;;;;;;;;;;5047048;28;1317;-64
2022/11/30 10:41:10;;;;;;;;;;;;;;;;;;5031640;28;925;-64
2022/11/30 10:43:42;;;;;;;;;;;;;;;;;;5029506;28;1011;-64
2022/11/30 10:46:13;;;;;;;;;;;;;;;;;;5045522;28;1902;-64
2022/11/30 10:48:42;;;;;;;;;;;;;;;;;;5030198;28;1094;-64
2022/11/30 10:51:09;;;;;;;;;;;;;;;;;;5045668;28;1291;-64
2022/11/30 10:53:35;;;;;;;;;;;;;;;;;;5029717;28;928;-64
2022/11/30 10:56:02;;;;;;;;;;;;;;;;;;5030412;28;836;-64
2022/11/30 10:58:31;;;;;;;;;;;;;;;;;;5030459;28;900;-64
2022/11/30 11:01:06;;;;;;;;;;;;;;;;;;5030014;28;1054;-64
2022/11/30 11:03:31;;;;;;;;;;;;;;;;;;5028796;28;1247;-64
2022/11/30 11:06:02;;;;;;;;;;;;;;;;;;5044990;28;1910;-64
2022/11/30 11:08:28;;;;;;;;;;;;;;;;;;5029042;28;1192;-64
2022/11/30 11:10:53;;;;;;;;;;;;;;;;;;5029485;28;1165;-65
2022/11/30 11:13:34;;;;;;;;;;;;;;;;;;5033617;28;1318;-64
2022/11/30 11:16:00;;;;;;;;;;;;;;;;;;5070025;28;1158;-65
2022/11/30 11:18:29;;;;;;;;;;;;;;;;;;5051391;28;983;-64
2022/11/30 11:21:02;;;;;;;;;;;;;;;;;;5070022;28;1035;-64
2022/11/30 11:23:35;;;;;;;;;;;;;;;;;;5068757;28;1179;-64
2022/11/30 11:26:00;;;;;;;;;;;;;;;;;;5069337;28;1913;-64
2022/11/30 11:28:26;;;;;;;;;;;;;;;;;;5069654;28;829;-64
2022/11/30 11:30:56;;;;;;;;;;;;;;;;;;5069779;28;880;-64
2022/11/30 11:33:23;;;;;;;;;;;;;;;;;;5070196;28;852;-64
2022/11/30 11:35:49;;;;;;;;;;;;;;;;;;5069923;28;837;-64
2022/11/30 11:38:22;;;;;;;;;;;;;;;;;;5069461;28;841;-65
2022/11/30 11:41:10;;;;;;;;;;;;;;;;;;5069855;28;908;-64
2022/11/30 11:43:52;;;;;;;;;;;;;;;;;;5069144;28;1416;-65
2022/11/30 11:46:17;;;;;;;;;;;;;;;;;;5035057;28;1914;-65
2022/11/30 11:48:56;;;;;;;;;;;;;;;;;;5069596;28;825;-64
2022/11/30 11:51:28;;;;;;;;;;;;;;;;;;5068213;28;1197;-65
2022/11/30 11:53:55;;;;;;;;;;;;;;;;;;5051594;28;1223;-65
2022/11/30 11:56:25;;;;;;;;;;;;;;;;;;5069878;28;920;-65
2022/11/30 11:58:59;;;;;;;;;;;;;;;;;;5070070;28;858;-65
2022/11/30 12:01:43;;;;;;;;;;;;;;;;;;5069111;28;833;-65
2022/11/30 12:04:27;;;;;;;;;;;;;;;;;;5070685;28;1034;-65
2022/11/30 12:06:54;;;;;;;;;;;;;;;;;;5073829;28;1914;-65
2022/11/30 12:09:32;;;;;;;;;;;;;;;;;;5073760;28;865;-65
2022/11/30 12:11:58;;;;;;;;;;;;;;;;;;5071379;28;1207;-65
2022/11/30 12:14:24;;;;;;;;;;;;;;;;;;5072473;28;889;-65
2022/11/30 12:17:02;;;;;;;;;;;;;;;;;;5055216;28;944;-64
2022/11/30 12:19:27;;;;;;;;;;;;;;;;;;5054775;28;1179;-65
2022/11/30 12:21:59;;;;;;;;;;;;;;;;;;5055670;28;1358;-64
2022/11/30 12:24:25;;;;;;;;;;;;;;;;;;5072222;28;1310;-64
2022/11/30 12:27:10;;;;;;;;;;;;;;;;;;5074338;28;1934;-64
2022/11/30 12:29:54;;;;;;;;;;;;;;;;;;5072801;28;1052;-64
2022/11/30 12:32:38;;;;;;;;;;;;;;;;;;5073373;28;1227;-65
2022/11/30 12:35:22;;;;;;;;;;;;;;;;;;5072812;28;865;-64
2022/11/30 12:37:58;;;;;;;;;;;;;;;;;;5054578;28;1175;-65
2022/11/30 12:40:49;;;;;;;;;;;;;;;;;;5072429;28;896;-64
2022/11/30 12:43:24;;;;;;;;;;;;;;;;;;5040486;28;1332;-64
2022/11/30 12:45:52;;;;;;;;;;;;;;;;;;5072699;28;1955;-64
2022/11/30 12:48:33;;;;;;;;;;;;;;;;;;5072621;28;904;-63
2022/11/30 12:51:14;;;;;;;;;;;;;;;;;;5072702;28;916;-63
2022/11/30 12:53:45;;;;;;;;;;;;;;;;;;5054264;28;1265;-64
2022/11/30 12:56:29;;;;;;;;;;;;;;;;;;5072422;28;875;-65
2022/11/30 12:58:54;;;;;;;;;;;;;;;;;;5072837;28;865;-65
2022/11/30 13:01:25;;;;;;;;;;;;;;;;;;5072641;28;884;-64
2022/11/30 13:04:02;;;;;;;;;;;;;;;;;;5072327;28;837;-64
2022/11/30 13:06:36;;;;;;;;;;;;;;;;;;5071885;28;1901;-65
2022/11/30 13:09:01;;;;;;;;;;;;;;;;;;5072033;28;849;-64
2022/11/30 13:11:35;;;;;;;;;;;;;;;;;;5071157;28;1224;-65
2022/11/30 13:14:01;;;;;;;;;;;;;;;;;;5070996;28;1207;-65
2022/11/30 13:16:28;;;;;;;;;;;;;;;;;;5071478;28;936;-65
2022/11/30 13:18:57;;;;;;;;;;;;;;;;;;5072650;28;794;-65
2022/11/30 13:21:30;;;;;;;;;;;;;;;;;;5071616;28;868;-65
2022/11/30 13:23:58;;;;;;;;;;;;;;;;;;5071816;28;793;-64
2022/11/30 13:26:39;;;;;;;;;;;;;;;;;;5053302;28;1965;-65
2022/11/30 13:29:04;;;;;;;;;;;;;;;;;;5071737;28;755;-65
2022/11/30 13:31:43;;;;;;;;;;;;;;;;;;5071737;28;884;-65
2022/11/30 13:34:41;;;;;;;;;;;;;;;;;;5071885;28;916;-64
2022/11/30 13:37:06;;;;;;;;;;;;;;;;;;5026729;28;1231;-65
2022/11/30 13:39:50;;;;;;;;;;;;;;;;;;5071685;28;794;-64
2022/11/30 13:42:33;;;;;;;;;;;;;;;;;;5071954;28;825;-65
2022/11/30 13:45:05;;;;;;;;;;;;;;;;;;5054278;28;1201;-65
2022/11/30 13:47:30;;;;;;;;;;;;;;;;;;5053525;28;1969;-65
2022/11/30 13:49:57;;;;;;;;;;;;;;;;;;5072336;28;884;-65
2022/11/30 13:52:41;;;;;;;;;;;;;;;;;;5071812;28;825;-65
2022/11/30 13:55:26;;;;;;;;;;;;;;;;;;5072545;28;900;-65
2022/11/30 13:57:51;;;;;;;;;;;;;;;;;;5054294;28;1313;-65
2022/11/30 14:00:28;;;;;;;;;;;;;;;;;;5071730;28;821;-65
2022/11/30 14:02:56;;;;;;;;;;;;;;;;;;5072512;28;892;-65
2022/11/30 14:05:22;;;;;;;;;;;;;;;;;;5071201;28;1955;-64
2022/11/30 14:07:50;;;;;;;;;;;;;;;;;;5072580;28;888;-64
2022/11/30 14:10:27;;;;;;;;;;;;;;;;;;5071538;28;875;-63
2022/11/30 14:13:17;;;;;;;;;;;;;;;;;;5071413;28;1188;-64
2022/11/30 14:15:43;;;;;;;;;;;;;;;;;;5059418;28;1340;-64
2022/11/30 14:18:08;;;;;;;;;;;;;;;;;;5052886;28;1106;-63
2022/11/30 14:20:36;;;;;;;;;;;;;;;;;;5070993;28;919;-66
2022/11/30 14:23:06;;;;;;;;;;;;;;;;;;5071257;28;778;-66
2022/11/30 14:25:33;;;;;;;;;;;;;;;;;;5070310;28;1949;-66
2022/11/30 14:28:00;;;;;;;;;;;;;;;;;;5070278;28;829;-66
2022/11/30 14:30:25;;;;;;;;;;;;;;;;;;5070363;28;1047;-66
2022/11/30 14:33:00;;;;;;;;;;;;;;;;;;5053162;28;1299;-65
2022/11/30 14:35:27;;;;;;;;;;;;;;;;;;5069853;28;836;-66
2022/11/30 14:37:56;;;;;;;;;;;;;;;;;;5070946;28;908;-65
2022/11/30 14:40:24;;;;;;;;;;;;;;;;;;5070259;28;793;-65
2022/11/30 14:42:50;;;;;;;;;;;;;;;;;;5052299;28;1066;-65
2022/11/30 14:45:23;;;;;;;;;;;;;;;;;;5069955;28;1957;-65
2022/11/30 14:47:51;;;;;;;;;;;;;;;;;;5051987;28;1252;-65
2022/11/30 14:50:21;;;;;;;;;;;;;;;;;;5070020;28;833;-65
2022/11/30 14:52:56;;;;;;;;;;;;;;;;;;5068461;28;1343;-65
2022/11/30 14:55:36;;;;;;;;;;;;;;;;;;5070490;28;1070;-65
2022/11/30 14:58:01;;;;;;;;;;;;;;;;;;5070872;28;813;-65
2022/11/30 15:00:26;;;;;;;;;;;;;;;;;;5069656;28;1054;-65
2022/11/30 15:02:51;;;;;;;;;;;;;;;;;;5070427;28;955;-65
2022/11/30 15:05:22;;;;;;;;;;;;;;;;;;5070334;28;1902;-65
2022/11/30 15:07:48;;;;;;;;;;;;;;;;;;5069693;28;944;-65
2022/11/30 15:10:23;;;;;;;;;;;;;;;;;;5070007;28;848;-65
2022/11/30 15:12:48;;;;;;;;;;;;;;;;;;5069409;28;1129;-65
2022/11/30 15:15:25;;;;;;;;;;;;;;;;;;5070252;28;857;-65
2022/11/30 15:17:54;;;;;;;;;;;;;;;;;;5070244;28;837;-65
2022/11/30 15:20:24;;;;;;;;;;;;;;;;;;5070353;28;904;-65
2022/11/30 15:22:50;;;;;;;;;;;;;;;;;;5072172;28;859;-65
2022/11/30 15:25:15;;;;;;;;;;;;;;;;;;5052374;28;853;-65
2022/11/30 15:27:41;;;;;;;;;;;;;;;;;;5051084;28;1914;-65
2022/11/30 15:30:12;;;;;;;;;;;;;;;;;;5051667;28;1140;-65
2022/11/30 15:32:37;;;;;;;;;;;;;;;;;;5051273;28;1323;-65
2022/11/30 15:35:03;;;;;;;;;;;;;;;;;;5070069;28;1105;-65
2022/11/30 15:37:29;;;;;;;;;;;;;;;;;;5070386;28;1069;-65
2022/11/30 15:39:55;;;;;;;;;;;;;;;;;;5074151;28;834;-65
2022/11/30 15:42:27;;;;;;;;;;;;;;;;;;5055648;28;1481;-65
2022/11/30 15:45:07;;;;;;;;;;;;;;;;;;5074868;28;900;-65
2022/11/30 15:47:35;;;;;;;;;;;;;;;;;;5073059;28;1969;-65
2022/11/30 15:50:02;;;;;;;;;;;;;;;;;;5073837;28;849;-65
2022/11/30 15:52:28;;;;;;;;;;;;;;;;;;5073016;28;872;-65
2022/11/30 15:54:54;;;;;;;;;;;;;;;;;;5055539;28;1202;-65
2022/11/30 15:57:21;;;;;;;;;;;;;;;;;;5073377;28;821;-65
2022/11/30 16:00:05;;;;;;;;;;;;;;;;;;5073120;28;802;-65
2022/11/30 16:02:32;;;;;;;;;;;;;;;;;;5072661;28;857;-65
2022/11/30 16:04:57;;;;;;;;;;;;;;;;;;5073686;28;1094;-65
2022/11/30 16:07:24;;;;;;;;;;;;;;;;;;5054952;28;1963;-65
2022/11/30 16:09:49;;;;;;;;;;;;;;;;;;5072990;28;809;-65
2022/11/30 16:12:21;;;;;;;;;;;;;;;;;;5073214;28;1077;-65
2022/11/30 16:14:46;;;;;;;;;;;;;;;;;;5072742;28;848;-65
2022/11/30 16:17:11;;;;;;;;;;;;;;;;;;5055585;28;1285;-65
2022/11/30 16:19:37;;;;;;;;;;;;;;;;;;5072708;28;880;-65
2022/11/30 16:22:02;;;;;;;;;;;;;;;;;;5073044;28;880;-65
2022/11/30 16:24:27;;;;;;;;;;;;;;;;;;5072553;28;1022;-65
2022/11/30 16:26:52;;;;;;;;;;;;;;;;;;5072747;28;1971;-65
2022/11/30 16:29:18;;;;;;;;;;;;;;;;;;5073138;28;1019;-65
2022/11/30 16:31:44;;;;;;;;;;;;;;;;;;5072943;28;1046;-65
2022/11/30 16:34:10;;;;;;;;;;;;;;;;;;5054798;28;1244;-65
2022/11/30 16:36:37;;;;;;;;;;;;;;;;;;5072151;28;947;-65
2022/11/30 16:39:02;;;;;;;;;;;;;;;;;;5073291;28;900;-65
2022/11/30 16:41:27;;;;;;;;;;;;;;;;;;5054145;28;1390;-65
2022/11/30 16:43:54;;;;;;;;;;;;;;;;;;5072505;28;841;-65
2022/11/30 16:46:21;;;;;;;;;;;;;;;;;;5072818;28;1977;-65
2022/11/30 16:48:47;;;;;;;;;;;;;;;;;;5054052;28;1326;-65
2022/11/30 16:51:15;;;;;;;;;;;;;;;;;;5053398;28;1334;-65
2022/11/30 16:53:40;;;;;;;;;;;;;;;;;;5045884;28;1211;-65
2022/11/30 16:56:08;;;;;;;;;;;;;;;;;;5013752;28;1165;-65
2022/11/30 16:58:34;;;;;;;;;;;;;;;;;;5054955;28;1219;-65
2022/11/30 17:00:59;;;;;;;;;;;;;;;;;;5046087;28;1129;-65
2022/11/30 17:03:26;;;;;;;;;;;;;;;;;;5011396;28;1394;-65
2022/11/30 17:05:52;;;;;;;;;;;;;;;;;;5011917;28;1898;-65
2022/11/30 17:08:17;;;;;;;;;;;;;;;;;;5032508;28;1161;-66
2022/11/30 17:10:42;;;;;;;;;;;;;;;;;;5033079;28;830;-65
2022/11/30 17:13:12;;;;;;;;;;;;;;;;;;5032271;28;1122;-66
2022/11/30 17:15:37;;;;;;;;;;;;;;;;;;5032996;28;856;-66
2022/11/30 17:18:03;;;;;;;;;;;;;;;;;;5032010;28;1124;-66
2022/11/30 17:20:28;;;;;;;;;;;;;;;;;;5032270;28;837;-66
2022/11/30 17:22:53;;;;;;;;;;;;;;;;;;5047318;28;1306;-65